Main page
METAR-TAF:

METAR-TAF

Airports :

Calais–Dunkerque Airport

Calais, France

latitude: 50-57-39N, longitude: 001-57-05E, elevation: 4 m

Current weather observation

The report was made 3 hours and 59 minutes ago, at 20:00 UTC
Wind 6 kt from the South/Southeast
Temperature 16°C
Humidity 48%
Pressure 1013 hPa
Visibility 10 km or more
no clouds below 1500 m and no cumulonimbus

METAR: LFAC 052000Z AUTO 16006KT CAVOK 16/05 Q1013

Time: 01:59 (23:59 UTC)


TAF: missing

Weather observations and forecasts of more than 4000 airports (METAR and TAF reports).

The available stations are represented by yellow and red dots on the map.

Hover mouse over dot to see the name of the station.

Then click to see weather observations and forecasts.

To change the map : click on the green buttons with a black cross to zoom in, on the green button with a dash to zoom out, or on the green arrows for adjacent maps.


METAR-TAF: